sensor_id;sensor_type;location;lat;lon;timestamp;P1;durP1;ratioP1;P2;durP2;ratioP2
38609;SDS011;24367;51.640;9.566;2023-05-13T00:00:11;3.78;;;2.55;;
38609;SDS011;24367;51.640;9.566;2023-05-13T00:02:39;3.17;;;2.25;;
38609;SDS011;24367;51.640;9.566;2023-05-13T00:05:06;3.30;;;2.47;;
38609;SDS011;24367;51.640;9.566;2023-05-13T00:07:33;3.05;;;2.20;;
38609;SDS011;24367;51.640;9.566;2023-05-13T00:09:59;4.05;;;2.53;;
38609;SDS011;24367;51.640;9.566;2023-05-13T00:12:27;4.28;;;2.20;;
38609;SDS011;24367;51.640;9.566;2023-05-13T00:14:55;3.13;;;2.20;;
38609;SDS011;24367;51.640;9.566;2023-05-13T00:17:21;3.30;;;2.30;;
38609;SDS011;24367;51.640;9.566;2023-05-13T00:19:48;3.72;;;2.50;;
38609;SDS011;24367;51.640;9.566;2023-05-13T00:22:14;2.97;;;2.20;;
38609;SDS011;24367;51.640;9.566;2023-05-13T00:24:40;3.17;;;2.10;;
38609;SDS011;24367;51.640;9.566;2023-05-13T00:27:07;3.00;;;2.47;;
38609;SDS011;24367;51.640;9.566;2023-05-13T00:29:35;3.28;;;2.17;;
38609;SDS011;24367;51.640;9.566;2023-05-13T00:32:02;2.72;;;2.10;;
38609;SDS011;24367;51.640;9.566;2023-05-13T00:34:29;3.70;;;2.42;;
38609;SDS011;24367;51.640;9.566;2023-05-13T00:36:55;4.68;;;2.28;;
38609;SDS011;24367;51.640;9.566;2023-05-13T00:39:21;3.33;;;2.15;;
38609;SDS011;24367;51.640;9.566;2023-05-13T00:41:48;2.35;;;1.90;;
38609;SDS011;24367;51.640;9.566;2023-05-13T00:44:15;3.10;;;1.92;;
38609;SDS011;24367;51.640;9.566;2023-05-13T00:46:42;5.38;;;2.40;;
38609;SDS011;24367;51.640;9.566;2023-05-13T00:49:09;2.85;;;2.05;;
38609;SDS011;24367;51.640;9.566;2023-05-13T00:51:35;4.90;;;2.13;;
38609;SDS011;24367;51.640;9.566;2023-05-13T00:54:02;2.78;;;2.10;;
38609;SDS011;24367;51.640;9.566;2023-05-13T00:56:29;3.90;;;2.30;;
38609;SDS011;24367;51.640;9.566;2023-05-13T00:58:56;3.28;;;2.05;;
38609;SDS011;24367;51.640;9.566;2023-05-13T01:01:25;4.63;;;2.33;;
38609;SDS011;24367;51.640;9.566;2023-05-13T01:03:59;4.32;;;2.20;;
38609;SDS011;24367;51.640;9.566;2023-05-13T01:06:35;3.92;;;2.05;;
38609;SDS011;24367;51.640;9.566;2023-05-13T01:09:10;2.22;;;1.73;;
38609;SDS011;24367;51.640;9.566;2023-05-13T01:11:41;3.15;;;2.25;;
38609;SDS011;24367;51.640;9.566;2023-05-13T01:14:08;3.05;;;2.13;;
38609;SDS011;24367;51.640;9.566;2023-05-13T01:16:39;3.00;;;2.20;;
38609;SDS011;24367;51.640;9.566;2023-05-13T01:19:15;3.22;;;2.30;;
38609;SDS011;24367;51.640;9.566;2023-05-13T01:21:53;3.63;;;1.92;;
38609;SDS011;24367;51.640;9.566;2023-05-13T01:24:20;3.20;;;2.10;;
38609;SDS011;24367;51.640;9.566;2023-05-13T01:26:47;3.33;;;2.08;;
38609;SDS011;24367;51.640;9.566;2023-05-13T01:29:14;4.43;;;2.20;;
38609;SDS011;24367;51.640;9.566;2023-05-13T01:31:42;3.35;;;2.10;;
38609;SDS011;24367;51.640;9.566;2023-05-13T01:34:09;3.22;;;1.90;;
38609;SDS011;24367;51.640;9.566;2023-05-13T01:36:36;2.65;;;1.90;;
38609;SDS011;24367;51.640;9.566;2023-05-13T01:39:05;4.05;;;1.80;;
38609;SDS011;24367;51.640;9.566;2023-05-13T01:41:32;2.80;;;2.20;;
38609;SDS011;24367;51.640;9.566;2023-05-13T01:44:00;3.72;;;2.33;;
38609;SDS011;24367;51.640;9.566;2023-05-13T01:46:26;3.38;;;2.10;;
38609;SDS011;24367;51.640;9.566;2023-05-13T01:48:53;2.25;;;1.77;;
38609;SDS011;24367;51.640;9.566;2023-05-13T01:51:20;3.15;;;2.20;;
38609;SDS011;24367;51.640;9.566;2023-05-13T01:53:46;2.40;;;1.88;;
38609;SDS011;24367;51.640;9.566;2023-05-13T01:56:14;3.30;;;1.85;;
38609;SDS011;24367;51.640;9.566;2023-05-13T01:58:40;3.58;;;2.20;;
38609;SDS011;24367;51.640;9.566;2023-05-13T02:01:07;2.72;;;2.13;;
38609;SDS011;24367;51.640;9.566;2023-05-13T02:03:33;3.42;;;2.28;;
38609;SDS011;24367;51.640;9.566;2023-05-13T02:06:00;2.60;;;2.08;;
38609;SDS011;24367;51.640;9.566;2023-05-13T02:08:27;2.85;;;2.00;;
38609;SDS011;24367;51.640;9.566;2023-05-13T02:10:54;3.10;;;1.98;;
38609;SDS011;24367;51.640;9.566;2023-05-13T02:13:22;3.08;;;2.30;;
38609;SDS011;24367;51.640;9.566;2023-05-13T02:15:48;3.20;;;2.25;;
38609;SDS011;24367;51.640;9.566;2023-05-13T02:18:15;2.80;;;1.98;;
38609;SDS011;24367;51.640;9.566;2023-05-13T02:20:41;3.05;;;2.15;;
38609;SDS011;24367;51.640;9.566;2023-05-13T02:23:08;2.92;;;2.22;;
38609;SDS011;24367;51.640;9.566;2023-05-13T02:25:34;2.75;;;1.95;;
38609;SDS011;24367;51.640;9.566;2023-05-13T02:28:01;2.90;;;2.00;;
38609;SDS011;24367;51.640;9.566;2023-05-13T02:30:28;2.63;;;1.90;;
38609;SDS011;24367;51.640;9.566;2023-05-13T02:32:56;3.05;;;2.17;;
38609;SDS011;24367;51.640;9.566;2023-05-13T02:35:22;2.40;;;1.70;;
38609;SDS011;24367;51.640;9.566;2023-05-13T02:37:53;2.90;;;2.28;;
38609;SDS011;24367;51.640;9.566;2023-05-13T02:40:20;2.80;;;2.15;;
38609;SDS011;24367;51.640;9.566;2023-05-13T02:42:47;2.70;;;1.80;;
38609;SDS011;24367;51.640;9.566;2023-05-13T02:45:17;2.80;;;1.83;;
38609;SDS011;24367;51.640;9.566;2023-05-13T02:47:50;2.70;;;1.75;;
38609;SDS011;24367;51.640;9.566;2023-05-13T02:50:17;2.70;;;2.00;;
38609;SDS011;24367;51.640;9.566;2023-05-13T02:52:43;2.75;;;2.05;;
38609;SDS011;24367;51.640;9.566;2023-05-13T02:55:10;2.63;;;1.73;;
38609;SDS011;24367;51.640;9.566;2023-05-13T02:57:37;2.72;;;2.10;;
38609;SDS011;24367;51.640;9.566;2023-05-13T03:00:03;3.33;;;1.88;;
38609;SDS011;24367;51.640;9.566;2023-05-13T03:02:32;2.55;;;2.03;;
38609;SDS011;24367;51.640;9.566;2023-05-13T03:05:01;4.30;;;2.10;;
38609;SDS011;24367;51.640;9.566;2023-05-13T03:07:27;2.30;;;1.80;;
38609;SDS011;24367;51.640;9.566;2023-05-13T03:09:54;3.53;;;2.17;;
38609;SDS011;24367;51.640;9.566;2023-05-13T03:12:21;2.22;;;1.70;;
38609;SDS011;24367;51.640;9.566;2023-05-13T03:14:47;5.18;;;2.42;;
38609;SDS011;24367;51.640;9.566;2023-05-13T03:17:14;3.67;;;2.10;;
38609;SDS011;24367;51.640;9.566;2023-05-13T03:19:40;3.28;;;2.15;;
38609;SDS011;24367;51.640;9.566;2023-05-13T03:22:08;2.60;;;2.00;;
38609;SDS011;24367;51.640;9.566;2023-05-13T03:24:35;2.90;;;1.98;;
38609;SDS011;24367;51.640;9.566;2023-05-13T03:27:02;3.30;;;2.13;;
38609;SDS011;24367;51.640;9.566;2023-05-13T03:29:29;2.92;;;1.80;;
38609;SDS011;24367;51.640;9.566;2023-05-13T03:31:56;2.92;;;1.98;;
38609;SDS011;24367;51.640;9.566;2023-05-13T03:34:24;2.50;;;1.77;;
38609;SDS011;24367;51.640;9.566;2023-05-13T03:36:51;2.50;;;1.90;;
38609;SDS011;24367;51.640;9.566;2023-05-13T03:39:19;2.72;;;1.90;;
38609;SDS011;24367;51.640;9.566;2023-05-13T03:41:45;2.90;;;2.15;;
38609;SDS011;24367;51.640;9.566;2023-05-13T03:44:12;2.95;;;2.10;;
38609;SDS011;24367;51.640;9.566;2023-05-13T03:46:38;2.47;;;1.77;;
38609;SDS011;24367;51.640;9.566;2023-05-13T03:49:05;2.60;;;2.10;;
38609;SDS011;24367;51.640;9.566;2023-05-13T03:51:31;2.70;;;2.00;;
38609;SDS011;24367;51.640;9.566;2023-05-13T03:53:59;2.97;;;2.00;;
38609;SDS011;24367;51.640;9.566;2023-05-13T03:56:26;2.78;;;1.80;;
38609;SDS011;24367;51.640;9.566;2023-05-13T03:58:53;2.60;;;1.80;;
38609;SDS011;24367;51.640;9.566;2023-05-13T04:01:20;2.90;;;1.92;;
38609;SDS011;24367;51.640;9.566;2023-05-13T04:03:47;2.60;;;2.00;;
38609;SDS011;24367;51.640;9.566;2023-05-13T04:06:14;2.33;;;1.60;;
38609;SDS011;24367;51.640;9.566;2023-05-13T04:08:40;2.90;;;2.22;;
38609;SDS011;24367;51.640;9.566;2023-05-13T04:11:07;2.80;;;1.92;;
38609;SDS011;24367;51.640;9.566;2023-05-13T04:13:35;2.90;;;1.90;;
38609;SDS011;24367;51.640;9.566;2023-05-13T04:16:02;3.50;;;2.10;;
38609;SDS011;24367;51.640;9.566;2023-05-13T04:18:28;2.60;;;1.70;;
38609;SDS011;24367;51.640;9.566;2023-05-13T04:20:55;2.28;;;1.70;;
38609;SDS011;24367;51.640;9.566;2023-05-13T04:23:21;2.50;;;1.85;;
38609;SDS011;24367;51.640;9.566;2023-05-13T04:25:49;3.20;;;2.20;;
38609;SDS011;24367;51.640;9.566;2023-05-13T04:28:15;4.90;;;2.10;;
38609;SDS011;24367;51.640;9.566;2023-05-13T04:30:44;2.88;;;1.80;;
38609;SDS011;24367;51.640;9.566;2023-05-13T04:33:10;3.05;;;1.90;;
38609;SDS011;24367;51.640;9.566;2023-05-13T04:35:40;2.60;;;1.80;;
38609;SDS011;24367;51.640;9.566;2023-05-13T04:38:06;2.60;;;2.13;;
38609;SDS011;24367;51.640;9.566;2023-05-13T04:40:33;2.58;;;1.67;;
38609;SDS011;24367;51.640;9.566;2023-05-13T04:43:05;2.83;;;1.98;;
38609;SDS011;24367;51.640;9.566;2023-05-13T04:45:38;3.90;;;2.45;;
38609;SDS011;24367;51.640;9.566;2023-05-13T04:48:08;2.63;;;2.00;;
38609;SDS011;24367;51.640;9.566;2023-05-13T04:50:35;2.42;;;1.88;;
38609;SDS011;24367;51.640;9.566;2023-05-13T04:53:02;3.10;;;1.90;;
38609;SDS011;24367;51.640;9.566;2023-05-13T04:55:29;3.38;;;2.00;;
38609;SDS011;24367;51.640;9.566;2023-05-13T04:57:55;4.47;;;2.00;;
38609;SDS011;24367;51.640;9.566;2023-05-13T05:00:22;3.22;;;2.28;;
38609;SDS011;24367;51.640;9.566;2023-05-13T05:02:50;3.28;;;1.90;;
38609;SDS011;24367;51.640;9.566;2023-05-13T05:05:17;2.78;;;1.90;;
38609;SDS011;24367;51.640;9.566;2023-05-13T05:07:45;2.67;;;1.80;;
38609;SDS011;24367;51.640;9.566;2023-05-13T05:10:11;3.30;;;2.08;;
38609;SDS011;24367;51.640;9.566;2023-05-13T05:12:42;4.05;;;1.98;;
38609;SDS011;24367;51.640;9.566;2023-05-13T05:15:10;2.92;;;2.10;;
38609;SDS011;24367;51.640;9.566;2023-05-13T05:17:40;3.15;;;1.90;;
38609;SDS011;24367;51.640;9.566;2023-05-13T05:20:07;4.45;;;1.88;;
38609;SDS011;24367;51.640;9.566;2023-05-13T05:22:37;5.53;;;2.33;;
38609;SDS011;24367;51.640;9.566;2023-05-13T05:25:06;2.70;;;2.17;;
38609;SDS011;24367;51.640;9.566;2023-05-13T05:27:33;4.97;;;2.10;;
38609;SDS011;24367;51.640;9.566;2023-05-13T05:30:00;2.92;;;2.10;;
38609;SDS011;24367;51.640;9.566;2023-05-13T05:32:29;2.50;;;1.80;;
38609;SDS011;24367;51.640;9.566;2023-05-13T05:34:56;2.42;;;1.80;;
38609;SDS011;24367;51.640;9.566;2023-05-13T05:37:22;2.53;;;1.77;;
38609;SDS011;24367;51.640;9.566;2023-05-13T05:39:51;3.42;;;1.80;;
38609;SDS011;24367;51.640;9.566;2023-05-13T05:42:17;3.28;;;1.83;;
38609;SDS011;24367;51.640;9.566;2023-05-13T05:44:44;4.57;;;2.10;;
38609;SDS011;24367;51.640;9.566;2023-05-13T05:47:11;4.20;;;2.20;;
38609;SDS011;24367;51.640;9.566;2023-05-13T05:49:38;3.22;;;2.05;;
38609;SDS011;24367;51.640;9.566;2023-05-13T05:52:05;4.63;;;1.65;;
38609;SDS011;24367;51.640;9.566;2023-05-13T05:54:31;2.20;;;1.55;;
38609;SDS011;24367;51.640;9.566;2023-05-13T05:56:59;4.50;;;1.60;;
38609;SDS011;24367;51.640;9.566;2023-05-13T05:59:26;3.00;;;1.88;;
38609;SDS011;24367;51.640;9.566;2023-05-13T06:01:52;2.80;;;1.95;;
38609;SDS011;24367;51.640;9.566;2023-05-13T06:04:19;4.35;;;1.73;;
38609;SDS011;24367;51.640;9.566;2023-05-13T06:06:46;2.65;;;1.77;;
38609;SDS011;24367;51.640;9.566;2023-05-13T06:09:12;3.95;;;1.70;;
38609;SDS011;24367;51.640;9.566;2023-05-13T06:11:39;3.35;;;1.88;;
38609;SDS011;24367;51.640;9.566;2023-05-13T06:14:06;3.97;;;2.10;;
38609;SDS011;24367;51.640;9.566;2023-05-13T06:16:33;4.55;;;1.73;;
38609;SDS011;24367;51.640;9.566;2023-05-13T06:19:00;2.80;;;1.90;;
38609;SDS011;24367;51.640;9.566;2023-05-13T06:21:26;6.30;;;2.20;;
38609;SDS011;24367;51.640;9.566;2023-05-13T06:23:52;6.85;;;3.20;;
38609;SDS011;24367;51.640;9.566;2023-05-13T06:26:20;8.30;;;3.90;;
38609;SDS011;24367;51.640;9.566;2023-05-13T06:28:46;10.18;;;3.63;;
38609;SDS011;24367;51.640;9.566;2023-05-13T06:31:14;7.53;;;3.95;;
38609;SDS011;24367;51.640;9.566;2023-05-13T06:33:42;8.30;;;4.15;;
38609;SDS011;24367;51.640;9.566;2023-05-13T06:36:09;5.38;;;3.92;;
38609;SDS011;24367;51.640;9.566;2023-05-13T06:38:37;5.65;;;3.67;;
38609;SDS011;24367;51.640;9.566;2023-05-13T06:41:04;6.78;;;4.00;;
38609;SDS011;24367;51.640;9.566;2023-05-13T06:43:33;9.27;;;3.97;;
38609;SDS011;24367;51.640;9.566;2023-05-13T06:46:10;5.93;;;3.30;;
38609;SDS011;24367;51.640;9.566;2023-05-13T06:48:38;4.65;;;3.28;;
38609;SDS011;24367;51.640;9.566;2023-05-13T06:51:05;6.85;;;3.58;;
38609;SDS011;24367;51.640;9.566;2023-05-13T06:53:31;10.18;;;3.63;;
38609;SDS011;24367;51.640;9.566;2023-05-13T06:55:58;7.88;;;4.03;;
38609;SDS011;24367;51.640;9.566;2023-05-13T06:58:24;7.43;;;3.50;;
38609;SDS011;24367;51.640;9.566;2023-05-13T07:00:51;6.38;;;3.30;;
38609;SDS011;24367;51.640;9.566;2023-05-13T07:03:18;5.70;;;2.88;;
38609;SDS011;24367;51.640;9.566;2023-05-13T07:05:46;8.68;;;3.25;;
38609;SDS011;24367;51.640;9.566;2023-05-13T07:08:12;5.47;;;3.10;;
38609;SDS011;24367;51.640;9.566;2023-05-13T07:10:41;5.47;;;3.42;;
38609;SDS011;24367;51.640;9.566;2023-05-13T07:13:08;10.23;;;3.13;;
38609;SDS011;24367;51.640;9.566;2023-05-13T07:15:35;6.97;;;3.40;;
38609;SDS011;24367;51.640;9.566;2023-05-13T07:18:02;5.40;;;3.20;;
38609;SDS011;24367;51.640;9.566;2023-05-13T07:20:28;5.63;;;2.95;;
38609;SDS011;24367;51.640;9.566;2023-05-13T07:22:56;6.07;;;3.42;;
38609;SDS011;24367;51.640;9.566;2023-05-13T07:25:23;7.38;;;3.50;;
38609;SDS011;24367;51.640;9.566;2023-05-13T07:27:49;4.53;;;3.05;;
38609;SDS011;24367;51.640;9.566;2023-05-13T07:30:16;6.30;;;2.67;;
38609;SDS011;24367;51.640;9.566;2023-05-13T07:32:42;4.95;;;2.95;;
38609;SDS011;24367;51.640;9.566;2023-05-13T07:35:08;4.85;;;2.90;;
38609;SDS011;24367;51.640;9.566;2023-05-13T07:37:35;4.85;;;3.13;;
38609;SDS011;24367;51.640;9.566;2023-05-13T07:40:04;5.25;;;2.83;;
38609;SDS011;24367;51.640;9.566;2023-05-13T07:42:31;6.30;;;2.97;;
38609;SDS011;24367;51.640;9.566;2023-05-13T07:44:57;5.85;;;3.13;;
38609;SDS011;24367;51.640;9.566;2023-05-13T07:47:24;10.75;;;3.92;;
38609;SDS011;24367;51.640;9.566;2023-05-13T07:49:51;8.13;;;3.60;;
38609;SDS011;24367;51.640;9.566;2023-05-13T07:52:18;13.73;;;4.32;;
38609;SDS011;24367;51.640;9.566;2023-05-13T07:54:44;8.32;;;3.70;;
38609;SDS011;24367;51.640;9.566;2023-05-13T07:57:12;10.05;;;3.53;;
38609;SDS011;24367;51.640;9.566;2023-05-13T07:59:38;5.18;;;3.22;;
38609;SDS011;24367;51.640;9.566;2023-05-13T08:02:05;6.63;;;3.15;;
38609;SDS011;24367;51.640;9.566;2023-05-13T08:04:32;6.35;;;3.47;;
38609;SDS011;24367;51.640;9.566;2023-05-13T08:06:59;5.35;;;3.10;;
38609;SDS011;24367;51.640;9.566;2023-05-13T08:09:26;5.22;;;3.38;;
38609;SDS011;24367;51.640;9.566;2023-05-13T08:11:52;5.15;;;3.17;;
38609;SDS011;24367;51.640;9.566;2023-05-13T08:14:20;5.57;;;3.50;;
38609;SDS011;24367;51.640;9.566;2023-05-13T08:16:47;5.55;;;3.35;;
38609;SDS011;24367;51.640;9.566;2023-05-13T08:19:13;6.10;;;3.55;;
38609;SDS011;24367;51.640;9.566;2023-05-13T08:21:40;4.65;;;3.33;;
38609;SDS011;24367;51.640;9.566;2023-05-13T08:24:07;5.28;;;3.13;;
38609;SDS011;24367;51.640;9.566;2023-05-13T08:26:33;4.32;;;2.90;;
38609;SDS011;24367;51.640;9.566;2023-05-13T08:29:00;5.47;;;3.38;;
38609;SDS011;24367;51.640;9.566;2023-05-13T08:31:27;5.05;;;3.20;;
38609;SDS011;24367;51.640;9.566;2023-05-13T08:33:56;5.43;;;3.17;;
38609;SDS011;24367;51.640;9.566;2023-05-13T08:36:22;4.20;;;3.00;;
38609;SDS011;24367;51.640;9.566;2023-05-13T08:38:50;5.22;;;3.17;;
38609;SDS011;24367;51.640;9.566;2023-05-13T08:41:16;4.80;;;3.13;;
38609;SDS011;24367;51.640;9.566;2023-05-13T08:43:43;5.00;;;3.50;;
38609;SDS011;24367;51.640;9.566;2023-05-13T08:46:12;3.65;;;2.30;;
38609;SDS011;24367;51.640;9.566;2023-05-13T08:48:42;5.35;;;2.85;;
38609;SDS011;24367;51.640;9.566;2023-05-13T08:51:09;5.63;;;3.03;;
38609;SDS011;24367;51.640;9.566;2023-05-13T08:53:37;5.00;;;2.97;;
38609;SDS011;24367;51.640;9.566;2023-05-13T08:56:04;4.07;;;2.80;;
38609;SDS011;24367;51.640;9.566;2023-05-13T08:58:31;5.22;;;3.00;;
38609;SDS011;24367;51.640;9.566;2023-05-13T09:00:58;4.07;;;2.70;;
38609;SDS011;24367;51.640;9.566;2023-05-13T09:03:26;5.82;;;3.22;;
38609;SDS011;24367;51.640;9.566;2023-05-13T09:05:54;3.58;;;3.03;;
38609;SDS011;24367;51.640;9.566;2023-05-13T09:08:20;5.13;;;2.80;;
38609;SDS011;24367;51.640;9.566;2023-05-13T09:10:47;5.53;;;2.85;;
38609;SDS011;24367;51.640;9.566;2023-05-13T09:13:15;4.35;;;3.13;;
38609;SDS011;24367;51.640;9.566;2023-05-13T09:15:43;5.10;;;3.00;;
38609;SDS011;24367;51.640;9.566;2023-05-13T09:18:09;6.03;;;3.20;;
38609;SDS011;24367;51.640;9.566;2023-05-13T09:20:36;4.75;;;2.83;;
38609;SDS011;24367;51.640;9.566;2023-05-13T09:23:06;5.78;;;3.42;;
38609;SDS011;24367;51.640;9.566;2023-05-13T09:25:32;6.20;;;3.05;;
38609;SDS011;24367;51.640;9.566;2023-05-13T09:28:00;4.35;;;2.95;;
38609;SDS011;24367;51.640;9.566;2023-05-13T09:30:29;5.90;;;3.08;;
38609;SDS011;24367;51.640;9.566;2023-05-13T09:33:04;4.32;;;2.70;;
38609;SDS011;24367;51.640;9.566;2023-05-13T09:35:33;4.68;;;2.88;;
38609;SDS011;24367;51.640;9.566;2023-05-13T09:38:00;5.75;;;3.42;;
38609;SDS011;24367;51.640;9.566;2023-05-13T09:40:28;6.53;;;3.60;;
38609;SDS011;24367;51.640;9.566;2023-05-13T09:42:55;6.70;;;3.10;;
38609;SDS011;24367;51.640;9.566;2023-05-13T09:45:22;5.93;;;3.15;;
38609;SDS011;24367;51.640;9.566;2023-05-13T09:47:50;6.15;;;3.25;;
38609;SDS011;24367;51.640;9.566;2023-05-13T09:50:17;6.05;;;3.47;;
38609;SDS011;24367;51.640;9.566;2023-05-13T09:52:44;5.55;;;3.13;;
38609;SDS011;24367;51.640;9.566;2023-05-13T09:55:10;8.95;;;3.42;;
38609;SDS011;24367;51.640;9.566;2023-05-13T09:57:38;9.68;;;3.70;;
38609;SDS011;24367;51.640;9.566;2023-05-13T10:00:05;6.75;;;3.28;;
38609;SDS011;24367;51.640;9.566;2023-05-13T10:02:36;7.25;;;3.17;;
38609;SDS011;24367;51.640;9.566;2023-05-13T10:05:03;11.23;;;3.60;;
38609;SDS011;24367;51.640;9.566;2023-05-13T10:07:31;6.95;;;3.60;;
38609;SDS011;24367;51.640;9.566;2023-05-13T10:09:59;9.32;;;3.20;;
38609;SDS011;24367;51.640;9.566;2023-05-13T10:12:27;5.35;;;3.30;;
38609;SDS011;24367;51.640;9.566;2023-05-13T10:14:57;6.57;;;3.15;;
38609;SDS011;24367;51.640;9.566;2023-05-13T10:17:26;5.72;;;3.13;;
38609;SDS011;24367;51.640;9.566;2023-05-13T10:19:53;10.30;;;3.50;;
38609;SDS011;24367;51.640;9.566;2023-05-13T10:22:20;4.20;;;2.60;;
38609;SDS011;24367;51.640;9.566;2023-05-13T10:24:53;6.05;;;3.00;;
38609;SDS011;24367;51.640;9.566;2023-05-13T10:27:22;6.70;;;2.50;;
38609;SDS011;24367;51.640;9.566;2023-05-13T10:29:51;6.97;;;3.15;;
38609;SDS011;24367;51.640;9.566;2023-05-13T10:32:21;6.45;;;2.90;;
38609;SDS011;24367;51.640;9.566;2023-05-13T10:34:48;7.25;;;3.15;;
38609;SDS011;24367;51.640;9.566;2023-05-13T10:37:24;6.00;;;2.60;;
38609;SDS011;24367;51.640;9.566;2023-05-13T10:43:32;5.45;;;2.50;;
38609;SDS011;24367;51.640;9.566;2023-05-13T10:45:59;6.25;;;3.45;;
38609;SDS011;24367;51.640;9.566;2023-05-13T10:48:37;5.78;;;3.13;;
38609;SDS011;24367;51.640;9.566;2023-05-13T10:51:05;4.30;;;2.97;;
38609;SDS011;24367;51.640;9.566;2023-05-13T10:53:35;4.57;;;2.60;;
38609;SDS011;24367;51.640;9.566;2023-05-13T10:56:03;5.63;;;3.00;;
38609;SDS011;24367;51.640;9.566;2023-05-13T10:58:32;6.13;;;2.95;;
38609;SDS011;24367;51.640;9.566;2023-05-13T11:01:13;5.03;;;3.05;;
38609;SDS011;24367;51.640;9.566;2023-05-13T11:03:49;7.15;;;3.25;;
38609;SDS011;24367;51.640;9.566;2023-05-13T11:06:18;6.05;;;3.05;;
38609;SDS011;24367;51.640;9.566;2023-05-13T11:08:45;4.57;;;2.80;;
38609;SDS011;24367;51.640;9.566;2023-05-13T11:11:16;4.72;;;2.63;;
38609;SDS011;24367;51.640;9.566;2023-05-13T11:13:43;4.57;;;2.45;;
38609;SDS011;24367;51.640;9.566;2023-05-13T11:16:11;6.95;;;2.47;;
38609;SDS011;24367;51.640;9.566;2023-05-13T11:18:38;5.50;;;2.90;;
38609;SDS011;24367;51.640;9.566;2023-05-13T11:21:06;4.15;;;2.83;;
38609;SDS011;24367;51.640;9.566;2023-05-13T11:23:34;4.95;;;2.95;;
38609;SDS011;24367;51.640;9.566;2023-05-13T11:26:15;4.97;;;2.83;;
38609;SDS011;24367;51.640;9.566;2023-05-13T11:28:55;6.47;;;3.00;;
38609;SDS011;24367;51.640;9.566;2023-05-13T11:31:26;5.18;;;3.17;;
38609;SDS011;24367;51.640;9.566;2023-05-13T11:34:06;5.47;;;2.53;;
38609;SDS011;24367;51.640;9.566;2023-05-13T11:36:36;5.80;;;2.83;;
38609;SDS011;24367;51.640;9.566;2023-05-13T11:39:04;5.30;;;3.35;;
38609;SDS011;24367;51.640;9.566;2023-05-13T11:41:31;6.47;;;3.10;;
38609;SDS011;24367;51.640;9.566;2023-05-13T11:43:58;8.60;;;3.25;;
38609;SDS011;24367;51.640;9.566;2023-05-13T11:46:27;5.13;;;3.35;;
38609;SDS011;24367;51.640;9.566;2023-05-13T11:48:53;7.85;;;3.40;;
38609;SDS011;24367;51.640;9.566;2023-05-13T11:51:20;12.35;;;7.53;;
38609;SDS011;24367;51.640;9.566;2023-05-13T11:53:49;17.73;;;8.68;;
38609;SDS011;24367;51.640;9.566;2023-05-13T11:56:17;13.68;;;8.43;;
38609;SDS011;24367;51.640;9.566;2023-05-13T11:58:43;11.95;;;8.50;;
38609;SDS011;24367;51.640;9.566;2023-05-13T12:01:12;17.77;;;7.93;;
38609;SDS011;24367;51.640;9.566;2023-05-13T12:03:39;9.43;;;6.60;;
38609;SDS011;24367;51.640;9.566;2023-05-13T12:06:06;12.88;;;6.40;;
38609;SDS011;24367;51.640;9.566;2023-05-13T12:08:33;10.90;;;5.18;;
38609;SDS011;24367;51.640;9.566;2023-05-13T12:11:01;11.45;;;5.22;;
38609;SDS011;24367;51.640;9.566;2023-05-13T12:13:29;11.23;;;4.90;;
38609;SDS011;24367;51.640;9.566;2023-05-13T12:15:56;10.15;;;4.60;;
38609;SDS011;24367;51.640;9.566;2023-05-13T12:18:23;8.48;;;4.70;;
38609;SDS011;24367;51.640;9.566;2023-05-13T12:20:49;5.28;;;3.70;;
38609;SDS011;24367;51.640;9.566;2023-05-13T12:23:16;6.05;;;3.78;;
38609;SDS011;24367;51.640;9.566;2023-05-13T12:25:43;7.25;;;4.32;;
38609;SDS011;24367;51.640;9.566;2023-05-13T12:28:13;7.78;;;3.80;;
38609;SDS011;24367;51.640;9.566;2023-05-13T12:30:42;11.57;;;4.13;;
38609;SDS011;24367;51.640;9.566;2023-05-13T12:33:13;9.13;;;4.55;;
38609;SDS011;24367;51.640;9.566;2023-05-13T12:35:40;8.23;;;3.60;;
38609;SDS011;24367;51.640;9.566;2023-05-13T12:38:07;8.25;;;3.75;;
38609;SDS011;24367;51.640;9.566;2023-05-13T12:40:33;6.70;;;3.70;;
38609;SDS011;24367;51.640;9.566;2023-05-13T12:43:00;7.00;;;3.58;;
38609;SDS011;24367;51.640;9.566;2023-05-13T12:45:29;5.95;;;3.75;;
38609;SDS011;24367;51.640;9.566;2023-05-13T12:47:56;4.72;;;3.30;;
38609;SDS011;24367;51.640;9.566;2023-05-13T12:50:24;8.00;;;3.75;;
38609;SDS011;24367;51.640;9.566;2023-05-13T12:52:51;6.45;;;3.85;;
38609;SDS011;24367;51.640;9.566;2023-05-13T12:55:17;5.80;;;3.72;;
38609;SDS011;24367;51.640;9.566;2023-05-13T12:57:53;7.00;;;3.58;;
38609;SDS011;24367;51.640;9.566;2023-05-13T13:00:20;4.20;;;3.20;;
38609;SDS011;24367;51.640;9.566;2023-05-13T13:02:48;6.95;;;3.63;;
38609;SDS011;24367;51.640;9.566;2023-05-13T13:05:15;5.70;;;2.88;;
38609;SDS011;24367;51.640;9.566;2023-05-13T13:07:42;5.30;;;2.50;;
38609;SDS011;24367;51.640;9.566;2023-05-13T13:10:08;6.85;;;2.88;;
38609;SDS011;24367;51.640;9.566;2023-05-13T13:12:35;5.18;;;2.92;;
38609;SDS011;24367;51.640;9.566;2023-05-13T13:15:02;9.32;;;3.45;;
38609;SDS011;24367;51.640;9.566;2023-05-13T13:17:29;6.03;;;2.80;;
38609;SDS011;24367;51.640;9.566;2023-05-13T13:19:56;10.45;;;3.50;;
38609;SDS011;24367;51.640;9.566;2023-05-13T13:22:23;9.88;;;3.22;;
38609;SDS011;24367;51.640;9.566;2023-05-13T13:24:49;7.82;;;2.95;;
38609;SDS011;24367;51.640;9.566;2023-05-13T13:27:16;8.13;;;3.30;;
38609;SDS011;24367;51.640;9.566;2023-05-13T13:29:43;6.13;;;3.10;;
38609;SDS011;24367;51.640;9.566;2023-05-13T13:32:10;8.57;;;3.30;;
38609;SDS011;24367;51.640;9.566;2023-05-13T13:34:37;10.15;;;3.65;;
38609;SDS011;24367;51.640;9.566;2023-05-13T13:37:05;10.15;;;3.33;;
38609;SDS011;24367;51.640;9.566;2023-05-13T13:39:32;30.40;;;4.47;;
38609;SDS011;24367;51.640;9.566;2023-05-13T13:41:58;11.65;;;2.88;;
38609;SDS011;24367;51.640;9.566;2023-05-13T13:44:28;4.93;;;2.42;;
38609;SDS011;24367;51.640;9.566;2023-05-13T13:46:55;7.03;;;2.67;;
38609;SDS011;24367;51.640;9.566;2023-05-13T13:49:21;6.68;;;3.03;;
38609;SDS011;24367;51.640;9.566;2023-05-13T13:51:47;5.97;;;2.60;;
38609;SDS011;24367;51.640;9.566;2023-05-13T13:54:15;4.28;;;3.00;;
38609;SDS011;24367;51.640;9.566;2023-05-13T13:56:42;6.90;;;2.42;;
38609;SDS011;24367;51.640;9.566;2023-05-13T13:59:08;5.90;;;2.67;;
38609;SDS011;24367;51.640;9.566;2023-05-13T14:01:34;7.90;;;2.65;;
38609;SDS011;24367;51.640;9.566;2023-05-13T14:04:08;7.18;;;2.78;;
38609;SDS011;24367;51.640;9.566;2023-05-13T14:06:35;7.60;;;2.75;;
38609;SDS011;24367;51.640;9.566;2023-05-13T14:09:01;6.40;;;2.70;;
38609;SDS011;24367;51.640;9.566;2023-05-13T14:11:29;7.75;;;2.65;;
38609;SDS011;24367;51.640;9.566;2023-05-13T14:13:56;6.95;;;2.42;;
38609;SDS011;24367;51.640;9.566;2023-05-13T14:16:22;6.95;;;2.25;;
38609;SDS011;24367;51.640;9.566;2023-05-13T14:18:49;8.85;;;3.00;;
38609;SDS011;24367;51.640;9.566;2023-05-13T14:21:15;6.75;;;2.83;;
38609;SDS011;24367;51.640;9.566;2023-05-13T14:23:42;4.63;;;2.78;;
38609;SDS011;24367;51.640;9.566;2023-05-13T14:26:08;4.45;;;2.22;;
38609;SDS011;24367;51.640;9.566;2023-05-13T14:28:38;9.85;;;2.50;;
38609;SDS011;24367;51.640;9.566;2023-05-13T14:31:05;5.50;;;2.60;;
38609;SDS011;24367;51.640;9.566;2023-05-13T14:33:31;7.38;;;2.90;;
38609;SDS011;24367;51.640;9.566;2023-05-13T14:35:57;5.88;;;2.28;;
38609;SDS011;24367;51.640;9.566;2023-05-13T14:38:24;5.38;;;2.60;;
38609;SDS011;24367;51.640;9.566;2023-05-13T14:40:51;4.05;;;2.17;;
38609;SDS011;24367;51.640;9.566;2023-05-13T14:43:20;4.25;;;2.33;;
38609;SDS011;24367;51.640;9.566;2023-05-13T14:45:47;5.35;;;2.30;;
38609;SDS011;24367;51.640;9.566;2023-05-13T14:48:14;4.93;;;2.20;;
38609;SDS011;24367;51.640;9.566;2023-05-13T14:50:41;6.40;;;2.50;;
38609;SDS011;24367;51.640;9.566;2023-05-13T14:53:07;7.05;;;2.50;;